createdAt,value
2022-08-07T00:00:39.991Z,15.35
2022-08-07T00:03:08.702Z,15.32
2022-08-07T00:05:37.051Z,15.27
2022-08-07T00:08:04.941Z,15.25
2022-08-07T00:10:31.837Z,15.22
2022-08-07T00:13:03.203Z,15.19
2022-08-07T00:15:46.829Z,15.15
2022-08-07T00:18:24.472Z,15.10
2022-08-07T00:20:57.498Z,15.06
2022-08-07T00:23:30.201Z,15.02
2022-08-07T00:26:00.646Z,14.96
2022-08-07T00:28:34.025Z,14.95
2022-08-07T00:31:12.356Z,14.92
2022-08-07T00:33:43.314Z,14.90
2022-08-07T00:36:13.970Z,14.87
2022-08-07T00:38:40.510Z,14.83
2022-08-07T00:41:10.036Z,14.82
2022-08-07T00:43:59.315Z,14.78
2022-08-07T00:46:28.100Z,14.72
2022-08-07T00:48:54.543Z,14.67
2022-08-07T00:51:21.555Z,14.64
2022-08-07T00:53:50.721Z,14.62
2022-08-07T00:56:22.968Z,14.59
2022-08-07T00:58:49.777Z,14.56
2022-08-07T01:01:18.464Z,14.54
2022-08-07T01:03:55.801Z,14.51
2022-08-07T01:06:28.442Z,14.48
2022-08-07T01:08:58.381Z,14.46
2022-08-07T01:12:09.584Z,14.43
2022-08-07T01:14:15.600Z,14.38
2022-08-07T01:16:47.184Z,14.36
2022-08-07T01:19:18.768Z,14.33
2022-08-07T01:21:48.085Z,14.29
2022-08-07T01:24:21.260Z,14.26
2022-08-07T01:26:52.282Z,14.25
2022-08-07T01:29:22.341Z,14.23
2022-08-07T01:31:49.620Z,14.21
2022-08-07T01:34:17.983Z,14.19
2022-08-07T01:36:52.490Z,14.15
2022-08-07T01:39:41.323Z,14.12
2022-08-07T01:42:38.884Z,14.07
2022-08-07T01:45:03.005Z,14.04
2022-08-07T01:48:19.024Z,14.01
2022-08-07T01:50:16.576Z,13.98
2022-08-07T01:52:54.447Z,13.94
2022-08-07T01:55:26.940Z,13.93
2022-08-07T01:58:05.442Z,13.91
2022-08-07T02:00:50.106Z,13.88
2022-08-07T02:03:24.925Z,13.85
2022-08-07T02:05:59.828Z,13.82
2022-08-07T02:08:30.518Z,13.81
2022-08-07T02:10:59.996Z,13.78
2022-08-07T02:13:56.470Z,13.76
2022-08-07T02:16:19.867Z,13.73
2022-08-07T02:18:47.851Z,13.73
2022-08-07T02:21:16.626Z,13.72
2022-08-07T02:23:44.840Z,13.70
2022-08-07T02:26:33.994Z,13.67
2022-08-07T02:29:02.258Z,13.64
2022-08-07T02:31:32.729Z,13.62
2022-08-07T02:34:10.908Z,13.60
2022-08-07T02:36:39.333Z,13.57
2022-08-07T02:39:16.153Z,13.54
2022-08-07T02:41:54.190Z,13.53
2022-08-07T02:44:21.391Z,13.50
2022-08-07T02:46:52.697Z,13.46
2022-08-07T02:49:29.158Z,13.43
2022-08-07T02:52:10.027Z,13.42
2022-08-07T02:54:42.703Z,13.40
2022-08-07T02:57:13.537Z,13.36
2022-08-07T02:59:45.635Z,13.33
2022-08-07T03:02:22.590Z,13.31
2022-08-07T03:04:51.496Z,13.29
2022-08-07T03:07:21.531Z,13.27
2022-08-07T03:10:06.417Z,13.24
2022-08-07T03:12:36.562Z,13.23
2022-08-07T03:15:07.484Z,13.19
2022-08-07T03:17:53.283Z,13.16
2022-08-07T03:20:22.038Z,13.13
2022-08-07T03:22:50.581Z,13.12
2022-08-07T03:25:21.162Z,13.10
2022-08-07T03:28:08.961Z,13.09
2022-08-07T03:30:36.185Z,13.05
2022-08-07T03:33:04.810Z,13.02
2022-08-07T03:35:43.796Z,13.01
2022-08-07T03:38:21.438Z,12.98
2022-08-07T03:40:57.716Z,12.94
2022-08-07T03:43:26.612Z,12.93
2022-08-07T03:45:53.640Z,12.92
2022-08-07T03:48:20.487Z,12.90
2022-08-07T03:50:55.758Z,12.89
2022-08-07T03:54:00.644Z,12.87
2022-08-07T03:56:11.191Z,12.86
2022-08-07T03:59:08.102Z,12.83
2022-08-07T04:01:28.891Z,12.81
2022-08-07T04:03:55.702Z,12.80
2022-08-07T04:06:37.577Z,12.80
2022-08-07T04:09:05.897Z,12.78
2022-08-07T04:12:23.771Z,12.76
2022-08-07T04:14:37.061Z,12.76
2022-08-07T04:17:19.928Z,12.74
2022-08-07T04:19:52.254Z,12.74
2022-08-07T04:22:23.901Z,12.73
2022-08-07T04:24:55.886Z,12.72
2022-08-07T04:27:25.806Z,12.73
2022-08-07T04:30:01.588Z,12.72
2022-08-07T04:32:34.260Z,12.71
2022-08-07T04:35:05.609Z,12.71
2022-08-07T04:37:52.825Z,12.74
2022-08-07T04:40:20.480Z,12.73
2022-08-07T04:42:47.053Z,12.72
2022-08-07T04:45:52.147Z,12.74
2022-08-07T04:48:12.873Z,12.75
2022-08-07T04:51:09.118Z,12.77
2022-08-07T04:54:05.669Z,12.78
2022-08-07T04:58:10.247Z,12.79
2022-08-07T05:00:09.838Z,12.83
2022-08-07T05:03:16.830Z,12.85
2022-08-07T05:06:20.154Z,12.87
2022-08-07T05:09:08.120Z,12.91
2022-08-07T05:11:57.348Z,12.97
2022-08-07T05:14:56.533Z,13.04
2022-08-07T05:17:52.900Z,13.12
2022-08-07T05:20:13.735Z,13.20
2022-08-07T05:22:42.112Z,13.26
2022-08-07T05:25:25.901Z,13.33
2022-08-07T05:28:02.575Z,13.41
2022-08-07T05:30:44.575Z,13.50
2022-08-07T05:33:15.113Z,13.59
2022-08-07T05:35:45.535Z,13.70
2022-08-07T05:39:01.382Z,13.79
2022-08-07T05:41:02.538Z,13.90
2022-08-07T05:44:01.567Z,14.00
2022-08-07T05:46:29.502Z,14.15
2022-08-07T05:48:59.533Z,14.31
2022-08-07T05:51:26.392Z,14.51
2022-08-07T05:54:12.867Z,14.70
2022-08-07T05:56:47.849Z,15.00
2022-08-07T05:59:19.656Z,15.28
2022-08-07T06:01:49.496Z,15.61
2022-08-07T06:04:19.636Z,16.22
2022-08-07T06:06:47.611Z,17.05
2022-08-07T06:09:23.478Z,17.79
2022-08-07T06:12:10.347Z,17.94
2022-08-07T06:14:39.562Z,17.47
2022-08-07T06:17:07.214Z,16.78
2022-08-07T06:19:52.038Z,16.26
2022-08-07T06:22:24.162Z,15.98
2022-08-07T06:24:58.442Z,15.86
2022-08-07T06:27:44.093Z,15.86
2022-08-07T06:30:24.381Z,15.95
2022-08-07T06:33:02.325Z,15.96
2022-08-07T06:35:38.933Z,15.99
2022-08-07T06:38:19.979Z,16.01
2022-08-07T06:40:50.152Z,16.12
2022-08-07T06:43:22.154Z,16.15
2022-08-07T06:45:49.235Z,16.34
2022-08-07T06:48:16.118Z,16.47
2022-08-07T06:50:52.923Z,16.45
2022-08-07T06:54:12.161Z,16.40
2022-08-07T06:56:15.165Z,16.49
2022-08-07T07:00:11.568Z,16.57
2022-08-07T07:01:43.735Z,16.75
2022-08-07T07:04:28.178Z,16.83
2022-08-07T07:07:02.378Z,16.84
2022-08-07T07:09:38.198Z,17.01
2022-08-07T07:12:15.599Z,17.01
2022-08-07T07:15:04.789Z,17.08
2022-08-07T07:17:54.765Z,17.14
2022-08-07T07:20:32.029Z,17.14
2022-08-07T07:24:08.947Z,17.24
2022-08-07T07:26:34.728Z,17.16
2022-08-07T07:29:38.408Z,17.28
2022-08-07T07:31:44.502Z,17.49
2022-08-07T07:34:19.694Z,17.55
2022-08-07T07:36:53.839Z,17.62
2022-08-07T07:39:22.823Z,17.67
2022-08-07T07:42:08.930Z,17.82
2022-08-07T07:44:43.984Z,18.02
2022-08-07T07:47:14.335Z,18.09
2022-08-07T07:50:33.876Z,18.18
2022-08-07T07:52:39.935Z,18.25
2022-08-07T07:55:09.099Z,18.24
2022-08-07T07:57:50.464Z,18.35
2022-08-07T08:00:29.400Z,18.28
2022-08-07T08:03:16.645Z,18.26
2022-08-07T08:05:58.513Z,18.46
2022-08-07T08:08:37.011Z,18.63
2022-08-07T08:11:13.516Z,18.66
2022-08-07T08:13:53.281Z,18.79
2022-08-07T08:16:29.914Z,18.93
2022-08-07T08:18:58.243Z,18.92
2022-08-07T08:21:56.929Z,18.92
2022-08-07T08:25:03.242Z,19.12
2022-08-07T08:27:43.958Z,19.11
2022-08-07T08:30:23.377Z,19.18
2022-08-07T08:32:59.085Z,19.11
2022-08-07T08:35:28.700Z,19.29
2022-08-07T08:38:04.598Z,19.32
2022-08-07T08:40:52.265Z,19.46
2022-08-07T08:43:42.137Z,19.50
2022-08-07T08:46:16.928Z,19.51
2022-08-07T08:49:07.106Z,19.64
2022-08-07T08:52:00.939Z,19.73
2022-08-07T08:54:46.098Z,19.91
2022-08-07T08:57:40.113Z,19.99
2022-08-07T09:00:09.228Z,20.02
2022-08-07T09:02:43.744Z,20.08
2022-08-07T09:05:37.503Z,20.09
2022-08-07T09:08:17.875Z,19.93
2022-08-07T09:11:24.226Z,20.06
2022-08-07T09:14:14.768Z,20.09
2022-08-07T09:16:47.663Z,20.09
2022-08-07T09:19:50.712Z,20.22
2022-08-07T09:24:31.522Z,20.25
2022-08-07T09:25:54.280Z,20.28
2022-08-07T09:30:03.127Z,20.39
2022-08-07T09:31:54.834Z,20.52
2022-08-07T09:34:27.657Z,20.61
2022-08-07T09:37:12.352Z,20.78
2022-08-07T09:40:05.918Z,20.94
2022-08-07T09:42:58.641Z,21.03
2022-08-07T09:47:49.765Z,21.10
2022-08-07T09:50:00.801Z,21.03
2022-08-07T09:52:33.380Z,21.14
2022-08-07T09:55:28.943Z,21.17
2022-08-07T09:58:32.907Z,21.35
2022-08-07T10:01:50.559Z,21.43
2022-08-07T10:04:47.720Z,21.52
2022-08-07T10:07:52.626Z,21.47
2022-08-07T10:10:28.279Z,21.67
2022-08-07T10:13:55.623Z,21.75
2022-08-07T10:16:16.001Z,21.80
2022-08-07T10:19:03.629Z,21.79
2022-08-07T10:22:16.333Z,21.86
2022-08-07T10:24:51.021Z,21.91
2022-08-07T10:27:47.652Z,21.93
2022-08-07T10:30:20.065Z,21.96
2022-08-07T10:34:06.797Z,22.01
2022-08-07T10:36:36.350Z,22.20
2022-08-07T10:39:41.928Z,22.14
2022-08-07T10:42:38.667Z,22.17
2022-08-07T10:45:44.964Z,22.21
2022-08-07T10:48:35.443Z,22.42
2022-08-07T10:51:39.568Z,22.36
2022-08-07T10:54:18.443Z,22.43
2022-08-07T10:56:54.545Z,22.51
2022-08-07T10:59:45.386Z,22.57
2022-08-07T11:02:34.128Z,22.62
2022-08-07T11:05:24.129Z,22.65
2022-08-07T11:08:02.601Z,22.69
2022-08-07T11:10:39.513Z,22.73
2022-08-07T11:14:42.332Z,22.73
2022-08-07T11:16:34.045Z,22.89
2022-08-07T11:19:21.654Z,22.91
2022-08-07T11:22:18.819Z,22.90
2022-08-07T11:25:07.281Z,23.01
2022-08-07T11:28:01.472Z,23.02
2022-08-07T11:30:57.909Z,23.04
2022-08-07T11:33:59.112Z,23.11
2022-08-07T11:37:11.584Z,23.24
2022-08-07T11:40:00.261Z,23.31
2022-08-07T11:42:59.812Z,23.41
2022-08-07T11:45:53.553Z,23.53
2022-08-07T11:49:50.884Z,23.64
2022-08-07T11:52:01.814Z,23.75
2022-08-07T11:54:38.699Z,23.74
2022-08-07T11:57:24.990Z,23.77
2022-08-07T12:00:30.967Z,23.91
2022-08-07T12:03:41.538Z,23.83
2022-08-07T12:06:39.110Z,23.85
2022-08-07T12:09:34.081Z,23.99
2022-08-07T12:12:18.730Z,24.04
2022-08-07T12:15:00.466Z,24.03
2022-08-07T12:17:37.271Z,24.04
2022-08-07T12:20:20.935Z,24.14
2022-08-07T12:23:16.431Z,24.26
2022-08-07T12:26:23.113Z,24.21
2022-08-07T12:29:11.778Z,24.23
2022-08-07T12:32:05.114Z,24.22
2022-08-07T12:34:36.981Z,24.21
2022-08-07T12:37:08.257Z,24.35
2022-08-07T12:39:50.564Z,24.49
2022-08-07T12:42:27.251Z,24.55
2022-08-07T12:44:58.383Z,24.64
2022-08-07T12:47:37.514Z,24.69
2022-08-07T12:50:34.283Z,24.73
2022-08-07T12:53:19.018Z,24.82
2022-08-07T12:56:12.361Z,24.71
2022-08-07T12:58:44.233Z,24.71
2022-08-07T13:01:19.347Z,24.74
2022-08-07T13:04:01.925Z,24.74
2022-08-07T13:07:00.379Z,24.61
2022-08-07T13:10:36.717Z,24.64
2022-08-07T13:12:58.419Z,24.76
2022-08-07T13:15:51.146Z,24.67
2022-08-07T13:18:28.363Z,24.61
2022-08-07T13:21:50.371Z,24.63
2022-08-07T13:24:29.436Z,24.51
2022-08-07T13:27:23.232Z,24.73
2022-08-07T13:30:19.115Z,24.69
2022-08-07T13:34:14.903Z,24.72
2022-08-07T13:36:17.785Z,24.77
2022-08-07T13:38:56.225Z,24.67
2022-08-07T13:41:42.548Z,24.88
2022-08-07T13:44:26.098Z,24.86
2022-08-07T13:46:57.976Z,24.96
2022-08-07T13:50:33.870Z,25.00
2022-08-07T13:52:33.552Z,24.99
2022-08-07T13:55:25.802Z,25.11
2022-08-07T13:58:28.180Z,25.16
2022-08-07T14:01:08.944Z,25.25
2022-08-07T14:04:05.652Z,25.26
2022-08-07T14:06:38.517Z,25.13
2022-08-07T14:09:07.270Z,25.24
2022-08-07T14:11:53.164Z,25.27
2022-08-07T14:14:31.328Z,25.46
2022-08-07T14:17:32.123Z,25.46
2022-08-07T14:20:39.813Z,25.34
2022-08-07T14:22:42.579Z,25.44
2022-08-07T14:25:15.429Z,25.51
2022-08-07T14:28:10.965Z,25.56
2022-08-07T14:30:40.494Z,25.69
2022-08-07T14:33:09.261Z,25.72
2022-08-07T14:35:44.710Z,25.54
2022-08-07T14:38:26.721Z,25.15
2022-08-07T14:41:04.999Z,25.08
2022-08-07T14:46:30.499Z,25.06
2022-08-07T14:49:00.242Z,25.27
2022-08-07T14:52:04.947Z,25.33
2022-08-07T14:54:42.124Z,25.28
2022-08-07T14:57:54.857Z,25.44
2022-08-07T15:00:06.631Z,25.70
2022-08-07T15:02:35.107Z,25.70
2022-08-07T15:05:19.665Z,25.79
2022-08-07T15:07:51.290Z,25.63
2022-08-07T15:10:26.039Z,25.66
2022-08-07T15:12:59.692Z,25.71
2022-08-07T15:15:38.897Z,25.70
2022-08-07T15:18:14.095Z,25.64
2022-08-07T15:21:08.334Z,25.69
2022-08-07T15:25:13.284Z,25.60
2022-08-07T15:26:35.412Z,25.55
2022-08-07T15:34:50.680Z,25.81
2022-08-07T15:38:04.645Z,25.92
2022-08-07T15:40:34.332Z,25.97
2022-08-07T15:43:53.661Z,25.91
2022-08-07T15:46:31.105Z,25.75
2022-08-07T15:49:12.027Z,25.68
2022-08-07T15:54:34.175Z,25.29
2022-08-07T15:57:02.894Z,25.35
2022-08-07T15:59:39.790Z,25.57
2022-08-07T16:02:22.739Z,25.60
2022-08-07T16:04:58.216Z,25.74
2022-08-07T16:08:33.326Z,25.96
2022-08-07T16:10:19.307Z,26.07
2022-08-07T16:13:17.788Z,25.95
2022-08-07T16:16:47.883Z,25.89
2022-08-07T16:19:21.127Z,25.83
2022-08-07T16:22:37.739Z,25.76
2022-08-07T16:25:54.169Z,25.76
2022-08-07T16:30:08.332Z,25.68
2022-08-07T16:32:05.996Z,25.50
2022-08-07T16:34:38.925Z,25.47
2022-08-07T16:38:05.922Z,25.58
2022-08-07T16:40:56.980Z,25.72
2022-08-07T16:44:02.296Z,25.79
2022-08-07T16:47:08.999Z,25.90
2022-08-07T16:50:28.842Z,25.91
2022-08-07T16:54:01.357Z,26.05
2022-08-07T16:56:29.401Z,26.24
2022-08-07T16:59:10.785Z,26.40
2022-08-07T17:02:02.849Z,26.43
2022-08-07T17:06:02.384Z,26.93
2022-08-07T17:07:58.152Z,27.15
2022-08-07T17:10:56.611Z,27.46
2022-08-07T17:14:18.607Z,27.25
2022-08-07T17:16:56.200Z,27.31
2022-08-07T17:20:02.252Z,27.33
2022-08-07T17:22:42.628Z,27.38
2022-08-07T17:25:48.004Z,27.36
2022-08-07T17:28:19.337Z,27.38
2022-08-07T17:31:16.604Z,27.32
2022-08-07T17:34:32.553Z,27.36
2022-08-07T17:36:57.737Z,27.19
2022-08-07T17:40:03.466Z,26.99
2022-08-07T17:42:59.194Z,26.69
2022-08-07T17:45:35.270Z,26.30
2022-08-07T17:48:31.078Z,26.26
2022-08-07T17:51:24.459Z,26.48
2022-08-07T17:54:29.600Z,26.14
2022-08-07T17:57:21.814Z,25.61
2022-08-07T17:59:56.097Z,25.30
2022-08-07T18:02:56.355Z,24.94
2022-08-07T18:06:02.818Z,24.68
2022-08-07T18:08:31.645Z,24.33
2022-08-07T18:12:06.915Z,24.18
2022-08-07T18:14:46.029Z,23.93
2022-08-07T18:18:39.936Z,23.73
2022-08-07T18:21:06.352Z,23.61
2022-08-07T18:23:43.498Z,23.35
2022-08-07T18:26:18.449Z,23.18
2022-08-07T18:29:02.426Z,23.09
2022-08-07T18:32:08.781Z,22.99
2022-08-07T18:35:01.655Z,22.93
2022-08-07T18:38:57.300Z,22.88
2022-08-07T18:40:56.376Z,22.74
2022-08-07T18:43:57.537Z,22.66
2022-08-07T18:46:51.154Z,22.64
2022-08-07T18:50:32.613Z,22.57
2022-08-07T18:52:56.758Z,22.51
2022-08-07T18:55:43.305Z,22.40
2022-08-07T18:58:37.311Z,22.35
2022-08-07T19:02:18.865Z,22.29
2022-08-07T19:04:28.184Z,22.20
2022-08-07T19:07:51.929Z,22.15
2022-08-07T19:10:31.442Z,22.10
2022-08-07T19:13:10.249Z,22.04
2022-08-07T19:16:43.206Z,21.93
2022-08-07T19:19:08.282Z,21.89
2022-08-07T19:22:04.622Z,21.84
2022-08-07T19:24:43.136Z,21.74
2022-08-07T19:28:30.584Z,21.70
2022-08-07T19:30:56.463Z,21.65
2022-08-07T19:33:01.647Z,21.56
2022-08-07T19:35:38.667Z,21.48
2022-08-07T19:38:15.898Z,21.47
2022-08-07T19:40:50.199Z,21.44
2022-08-07T19:43:43.943Z,21.38
2022-08-07T19:46:10.711Z,21.28
2022-08-07T19:48:42.878Z,21.22
2022-08-07T19:51:19.245Z,21.15
2022-08-07T19:54:33.747Z,21.11
2022-08-07T19:58:02.405Z,21.03
2022-08-07T19:59:41.214Z,20.93
2022-08-07T20:02:19.666Z,20.86
2022-08-07T20:04:50.145Z,20.82
2022-08-07T20:07:23.768Z,20.78
2022-08-07T20:10:35.062Z,20.77
2022-08-07T20:12:54.364Z,20.69
2022-08-07T20:15:32.973Z,20.66
2022-08-07T20:18:06.245Z,20.61
2022-08-07T20:20:41.756Z,20.58
2022-08-07T20:23:23.114Z,20.52
2022-08-07T20:26:04.415Z,20.45
2022-08-07T20:28:39.859Z,20.39
2022-08-07T20:31:21.037Z,20.30
2022-08-07T20:33:56.499Z,20.23
2022-08-07T20:36:27.201Z,20.17
2022-08-07T20:39:00.403Z,20.15
2022-08-07T20:41:37.962Z,20.05
2022-08-07T20:44:10.517Z,20.00
2022-08-07T20:46:44.662Z,19.95
2022-08-07T20:50:00.115Z,19.90
2022-08-07T20:52:00.016Z,19.87
2022-08-07T20:54:29.754Z,19.80
2022-08-07T20:57:03.696Z,19.73
2022-08-07T21:00:06.702Z,19.66
2022-08-07T21:02:41.778Z,19.61
2022-08-07T21:05:25.714Z,19.57
2022-08-07T21:08:35.061Z,19.57
2022-08-07T21:11:10.474Z,19.56
2022-08-07T21:13:57.410Z,19.54
2022-08-07T21:16:30.181Z,19.46
2022-08-07T21:18:57.750Z,19.38
2022-08-07T21:21:28.968Z,19.33
2022-08-07T21:24:16.714Z,19.28
2022-08-07T21:27:01.016Z,19.23
2022-08-07T21:29:33.816Z,19.20
2022-08-07T21:32:50.913Z,19.12
2022-08-07T21:35:34.572Z,19.02
2022-08-07T21:38:18.014Z,18.95
2022-08-07T21:41:00.312Z,18.92
2022-08-07T21:43:55.665Z,18.86
2022-08-07T21:46:37.858Z,18.83
2022-08-07T21:50:02.261Z,18.79
2022-08-07T21:52:37.194Z,18.77
2022-08-07T21:55:10.983Z,18.74
2022-08-07T21:58:09.215Z,18.68
2022-08-07T22:00:42.553Z,18.67
2022-08-07T22:03:31.252Z,18.65
2022-08-07T22:06:06.490Z,18.58
2022-08-07T22:08:50.040Z,18.53
2022-08-07T22:11:18.291Z,18.49
2022-08-07T22:13:54.883Z,18.45
2022-08-07T22:16:38.482Z,18.42
2022-08-07T22:19:27.068Z,18.35
2022-08-07T22:22:21.484Z,18.30
2022-08-07T22:25:18.431Z,18.26
2022-08-07T22:28:07.735Z,18.22
2022-08-07T22:31:09.933Z,18.17
2022-08-07T22:33:57.055Z,18.16
2022-08-07T22:36:53.164Z,18.13
2022-08-07T22:39:28.512Z,18.09
2022-08-07T22:42:18.838Z,18.05
2022-08-07T22:44:58.717Z,18.01
2022-08-07T22:47:49.439Z,17.99
2022-08-07T22:50:53.529Z,17.92
2022-08-07T22:54:06.685Z,17.88
2022-08-07T22:57:03.078Z,17.84
2022-08-07T22:59:46.966Z,17.79
2022-08-07T23:02:34.942Z,17.74
2022-08-07T23:06:08.220Z,17.68
2022-08-07T23:08:30.198Z,17.63
2022-08-07T23:11:22.872Z,17.59
2022-08-07T23:14:10.893Z,17.55
2022-08-07T23:17:00.453Z,17.48
2022-08-07T23:19:51.925Z,17.43
2022-08-07T23:22:55.446Z,17.39
2022-08-07T23:25:56.602Z,17.38
2022-08-07T23:28:54.689Z,17.35
2022-08-07T23:32:48.672Z,17.31
2022-08-07T23:34:23.629Z,17.25
2022-08-07T23:37:36.013Z,17.22
2022-08-07T23:40:26.381Z,17.18
2022-08-07T23:43:24.162Z,17.13
2022-08-07T23:46:10.544Z,17.06
2022-08-07T23:48:59.276Z,17.03
2022-08-07T23:52:59.895Z,16.99
2022-08-07T23:54:46.484Z,16.94
2022-08-07T23:57:34.954Z,16.89
